sensor_id;sensor_type;location;lat;lon;timestamp;temperature;humidity
12700;DHT22;6414;49.570;6.060;2022-11-14T00:02:37;4.10;99.90
12700;DHT22;6414;49.570;6.060;2022-11-14T00:05:22;4.10;99.90
12700;DHT22;6414;49.570;6.060;2022-11-14T00:08:18;4.10;99.90
12700;DHT22;6414;49.570;6.060;2022-11-14T00:11:03;4.10;99.90
12700;DHT22;6414;49.570;6.060;2022-11-14T00:13:48;4.00;99.90
12700;DHT22;6414;49.570;6.060;2022-11-14T00:16:33;3.90;99.90
12700;DHT22;6414;49.570;6.060;2022-11-14T00:19:19;3.70;99.90
12700;DHT22;6414;49.570;6.060;2022-11-14T00:22:04;3.60;99.90
12700;DHT22;6414;49.570;6.060;2022-11-14T00:24:49;3.60;99.90
12700;DHT22;6414;49.570;6.060;2022-11-14T00:27:35;3.60;99.90
12700;DHT22;6414;49.570;6.060;2022-11-14T00:30:21;4.00;99.90
12700;DHT22;6414;49.570;6.060;2022-11-14T00:33:07;4.00;99.90
12700;DHT22;6414;49.570;6.060;2022-11-14T00:35:55;4.00;99.90
12700;DHT22;6414;49.570;6.060;2022-11-14T00:38:40;4.00;99.90
12700;DHT22;6414;49.570;6.060;2022-11-14T00:41:26;4.00;99.90
12700;DHT22;6414;49.570;6.060;2022-11-14T00:44:11;4.10;99.90
12700;DHT22;6414;49.570;6.060;2022-11-14T00:46:57;4.00;99.90
12700;DHT22;6414;49.570;6.060;2022-11-14T00:49:43;3.80;99.90
12700;DHT22;6414;49.570;6.060;2022-11-14T00:52:28;3.70;99.90
12700;DHT22;6414;49.570;6.060;2022-11-14T00:55:14;3.70;99.90
12700;DHT22;6414;49.570;6.060;2022-11-14T00:58:00;3.60;99.90
12700;DHT22;6414;49.570;6.060;2022-11-14T01:00:46;3.70;99.90
12700;DHT22;6414;49.570;6.060;2022-11-14T01:03:32;3.70;99.90
12700;DHT22;6414;49.570;6.060;2022-11-14T01:06:17;3.60;99.90
12700;DHT22;6414;49.570;6.060;2022-11-14T01:09:02;3.80;99.90
12700;DHT22;6414;49.570;6.060;2022-11-14T01:11:48;3.80;99.90
12700;DHT22;6414;49.570;6.060;2022-11-14T01:14:33;3.70;99.90
12700;DHT22;6414;49.570;6.060;2022-11-14T01:17:19;3.70;99.90
12700;DHT22;6414;49.570;6.060;2022-11-14T01:20:04;3.70;99.90
12700;DHT22;6414;49.570;6.060;2022-11-14T01:22:50;3.50;99.90
12700;DHT22;6414;49.570;6.060;2022-11-14T01:25:36;3.60;99.90
12700;DHT22;6414;49.570;6.060;2022-11-14T01:28:21;3.50;99.90
12700;DHT22;6414;49.570;6.060;2022-11-14T01:31:19;3.70;99.90
12700;DHT22;6414;49.570;6.060;2022-11-14T01:33:54;3.50;99.90
12700;DHT22;6414;49.570;6.060;2022-11-14T01:36:39;3.70;99.90
12700;DHT22;6414;49.570;6.060;2022-11-14T01:39:25;3.70;99.90
12700;DHT22;6414;49.570;6.060;2022-11-14T01:42:10;3.80;99.90
12700;DHT22;6414;49.570;6.060;2022-11-14T01:44:56;3.80;99.90
12700;DHT22;6414;49.570;6.060;2022-11-14T01:47:41;3.70;99.90
12700;DHT22;6414;49.570;6.060;2022-11-14T01:50:27;3.90;99.90
12700;DHT22;6414;49.570;6.060;2022-11-14T01:53:12;3.90;99.90
12700;DHT22;6414;49.570;6.060;2022-11-14T01:55:58;3.80;99.90
12700;DHT22;6414;49.570;6.060;2022-11-14T01:58:43;3.90;99.90
12700;DHT22;6414;49.570;6.060;2022-11-14T02:01:31;4.00;99.90
12700;DHT22;6414;49.570;6.060;2022-11-14T02:04:26;4.00;99.90
12700;DHT22;6414;49.570;6.060;2022-11-14T02:07:10;4.10;99.90
12700;DHT22;6414;49.570;6.060;2022-11-14T02:09:55;4.10;99.90
12700;DHT22;6414;49.570;6.060;2022-11-14T02:12:41;4.10;99.90
12700;DHT22;6414;49.570;6.060;2022-11-14T02:15:26;4.20;99.90
12700;DHT22;6414;49.570;6.060;2022-11-14T02:18:11;4.20;99.90
12700;DHT22;6414;49.570;6.060;2022-11-14T02:20:56;4.10;99.90
12700;DHT22;6414;49.570;6.060;2022-11-14T02:23:42;4.10;99.90
12700;DHT22;6414;49.570;6.060;2022-11-14T02:26:27;4.20;99.90
12700;DHT22;6414;49.570;6.060;2022-11-14T02:29:12;4.20;99.90
12700;DHT22;6414;49.570;6.060;2022-11-14T02:31:58;4.20;99.90
12700;DHT22;6414;49.570;6.060;2022-11-14T02:34:43;4.20;99.90
12700;DHT22;6414;49.570;6.060;2022-11-14T02:37:29;4.30;99.90
12700;DHT22;6414;49.570;6.060;2022-11-14T02:40:14;4.20;99.90
12700;DHT22;6414;49.570;6.060;2022-11-14T02:43:00;4.10;99.90
12700;DHT22;6414;49.570;6.060;2022-11-14T02:45:45;4.10;99.90
12700;DHT22;6414;49.570;6.060;2022-11-14T02:48:30;4.20;99.90
12700;DHT22;6414;49.570;6.060;2022-11-14T02:51:17;4.30;99.90
12700;DHT22;6414;49.570;6.060;2022-11-14T02:54:02;4.30;99.90
12700;DHT22;6414;49.570;6.060;2022-11-14T02:56:48;4.30;99.90
12700;DHT22;6414;49.570;6.060;2022-11-14T02:59:33;4.20;99.90
12700;DHT22;6414;49.570;6.060;2022-11-14T03:02:19;4.70;99.90
12700;DHT22;6414;49.570;6.060;2022-11-14T03:05:04;5.10;99.90
12700;DHT22;6414;49.570;6.060;2022-11-14T03:07:53;5.40;99.90
12700;DHT22;6414;49.570;6.060;2022-11-14T03:10:38;5.30;99.90
12700;DHT22;6414;49.570;6.060;2022-11-14T03:13:27;5.30;99.90
12700;DHT22;6414;49.570;6.060;2022-11-14T03:16:10;5.30;99.90
12700;DHT22;6414;49.570;6.060;2022-11-14T03:18:55;5.50;99.90
12700;DHT22;6414;49.570;6.060;2022-11-14T03:21:41;5.30;99.90
12700;DHT22;6414;49.570;6.060;2022-11-14T03:24:26;5.50;99.90
12700;DHT22;6414;49.570;6.060;2022-11-14T03:27:11;5.80;99.90
12700;DHT22;6414;49.570;6.060;2022-11-14T03:29:57;5.80;99.90
12700;DHT22;6414;49.570;6.060;2022-11-14T03:32:42;5.80;99.90
12700;DHT22;6414;49.570;6.060;2022-11-14T03:35:28;5.70;99.90
12700;DHT22;6414;49.570;6.060;2022-11-14T03:38:13;5.90;99.90
12700;DHT22;6414;49.570;6.060;2022-11-14T03:40:59;5.70;99.90
12700;DHT22;6414;49.570;6.060;2022-11-14T03:43:44;5.70;99.90
12700;DHT22;6414;49.570;6.060;2022-11-14T03:46:29;5.80;99.90
12700;DHT22;6414;49.570;6.060;2022-11-14T03:49:14;5.80;99.90
12700;DHT22;6414;49.570;6.060;2022-11-14T03:52:00;5.80;99.90
12700;DHT22;6414;49.570;6.060;2022-11-14T03:54:45;5.70;99.90
12700;DHT22;6414;49.570;6.060;2022-11-14T03:57:30;5.70;99.90
12700;DHT22;6414;49.570;6.060;2022-11-14T04:00:16;5.60;99.90
12700;DHT22;6414;49.570;6.060;2022-11-14T04:03:01;5.70;99.90
12700;DHT22;6414;49.570;6.060;2022-11-14T04:05:46;5.70;99.90
12700;DHT22;6414;49.570;6.060;2022-11-14T04:08:31;5.60;99.90
12700;DHT22;6414;49.570;6.060;2022-11-14T04:11:17;5.70;99.90
12700;DHT22;6414;49.570;6.060;2022-11-14T04:14:02;5.60;99.90
12700;DHT22;6414;49.570;6.060;2022-11-14T04:16:47;5.70;99.90
12700;DHT22;6414;49.570;6.060;2022-11-14T04:19:32;5.80;99.90
12700;DHT22;6414;49.570;6.060;2022-11-14T04:22:17;5.80;99.90
12700;DHT22;6414;49.570;6.060;2022-11-14T04:25:03;5.80;99.90
12700;DHT22;6414;49.570;6.060;2022-11-14T04:27:48;5.90;99.90
12700;DHT22;6414;49.570;6.060;2022-11-14T04:30:33;5.60;99.90
12700;DHT22;6414;49.570;6.060;2022-11-14T04:33:19;5.70;99.90
12700;DHT22;6414;49.570;6.060;2022-11-14T04:36:04;5.50;99.90
12700;DHT22;6414;49.570;6.060;2022-11-14T04:38:50;5.80;99.90
12700;DHT22;6414;49.570;6.060;2022-11-14T04:41:36;5.50;99.90
12700;DHT22;6414;49.570;6.060;2022-11-14T04:44:21;5.70;99.90
12700;DHT22;6414;49.570;6.060;2022-11-14T04:47:07;5.60;99.90
12700;DHT22;6414;49.570;6.060;2022-11-14T04:49:53;5.70;99.90
12700;DHT22;6414;49.570;6.060;2022-11-14T04:52:38;5.60;99.90
12700;DHT22;6414;49.570;6.060;2022-11-14T04:55:24;5.70;99.90
12700;DHT22;6414;49.570;6.060;2022-11-14T04:58:09;5.60;99.90
12700;DHT22;6414;49.570;6.060;2022-11-14T05:00:54;5.90;99.90
12700;DHT22;6414;49.570;6.060;2022-11-14T05:03:40;6.00;99.90
12700;DHT22;6414;49.570;6.060;2022-11-14T05:06:25;6.10;99.90
12700;DHT22;6414;49.570;6.060;2022-11-14T05:09:10;6.10;99.90
12700;DHT22;6414;49.570;6.060;2022-11-14T05:11:56;6.10;99.90
12700;DHT22;6414;49.570;6.060;2022-11-14T05:14:42;5.90;99.90
12700;DHT22;6414;49.570;6.060;2022-11-14T05:17:27;5.80;99.90
12700;DHT22;6414;49.570;6.060;2022-11-14T05:20:13;6.00;99.90
12700;DHT22;6414;49.570;6.060;2022-11-14T05:22:58;6.10;99.90
12700;DHT22;6414;49.570;6.060;2022-11-14T05:25:43;6.00;99.90
12700;DHT22;6414;49.570;6.060;2022-11-14T05:28:29;6.20;99.90
12700;DHT22;6414;49.570;6.060;2022-11-14T05:31:14;6.30;99.90
12700;DHT22;6414;49.570;6.060;2022-11-14T05:33:59;6.40;99.90
12700;DHT22;6414;49.570;6.060;2022-11-14T05:36:45;6.50;99.90
12700;DHT22;6414;49.570;6.060;2022-11-14T05:39:31;6.60;99.90
12700;DHT22;6414;49.570;6.060;2022-11-14T05:42:16;6.60;99.90
12700;DHT22;6414;49.570;6.060;2022-11-14T05:45:01;6.60;99.90
12700;DHT22;6414;49.570;6.060;2022-11-14T05:47:47;6.70;99.90
12700;DHT22;6414;49.570;6.060;2022-11-14T05:50:33;6.70;99.90
12700;DHT22;6414;49.570;6.060;2022-11-14T05:53:18;6.70;99.90
12700;DHT22;6414;49.570;6.060;2022-11-14T05:56:04;6.80;99.90
12700;DHT22;6414;49.570;6.060;2022-11-14T05:58:49;6.90;99.90
12700;DHT22;6414;49.570;6.060;2022-11-14T06:01:34;6.80;99.90
12700;DHT22;6414;49.570;6.060;2022-11-14T06:04:19;6.80;99.90
12700;DHT22;6414;49.570;6.060;2022-11-14T06:07:06;6.80;99.90
12700;DHT22;6414;49.570;6.060;2022-11-14T06:09:51;6.50;99.90
12700;DHT22;6414;49.570;6.060;2022-11-14T06:12:37;6.70;99.90
12700;DHT22;6414;49.570;6.060;2022-11-14T06:15:22;6.80;99.90
12700;DHT22;6414;49.570;6.060;2022-11-14T06:18:07;6.90;99.90
12700;DHT22;6414;49.570;6.060;2022-11-14T06:20:53;6.90;99.90
12700;DHT22;6414;49.570;6.060;2022-11-14T06:23:38;6.90;99.90
12700;DHT22;6414;49.570;6.060;2022-11-14T06:26:24;6.90;99.90
12700;DHT22;6414;49.570;6.060;2022-11-14T06:29:09;6.90;99.90
12700;DHT22;6414;49.570;6.060;2022-11-14T06:31:54;6.90;99.90
12700;DHT22;6414;49.570;6.060;2022-11-14T06:34:40;6.90;99.90
12700;DHT22;6414;49.570;6.060;2022-11-14T06:37:25;6.80;99.90
12700;DHT22;6414;49.570;6.060;2022-11-14T06:40:12;6.90;99.90
12700;DHT22;6414;49.570;6.060;2022-11-14T06:42:57;6.60;99.90
12700;DHT22;6414;49.570;6.060;2022-11-14T06:45:43;6.90;99.90
12700;DHT22;6414;49.570;6.060;2022-11-14T06:48:29;6.60;99.90
12700;DHT22;6414;49.570;6.060;2022-11-14T06:51:15;6.80;99.90
12700;DHT22;6414;49.570;6.060;2022-11-14T06:54:00;6.50;99.90
12700;DHT22;6414;49.570;6.060;2022-11-14T06:56:45;6.60;99.90
12700;DHT22;6414;49.570;6.060;2022-11-14T06:59:31;6.70;99.90
12700;DHT22;6414;49.570;6.060;2022-11-14T07:02:16;6.80;99.90
12700;DHT22;6414;49.570;6.060;2022-11-14T07:05:02;6.80;99.90
12700;DHT22;6414;49.570;6.060;2022-11-14T07:07:47;6.80;99.90
12700;DHT22;6414;49.570;6.060;2022-11-14T07:10:32;6.70;99.90
12700;DHT22;6414;49.570;6.060;2022-11-14T07:13:18;6.80;99.90
12700;DHT22;6414;49.570;6.060;2022-11-14T07:16:03;6.80;99.90
12700;DHT22;6414;49.570;6.060;2022-11-14T07:18:48;6.70;99.90
12700;DHT22;6414;49.570;6.060;2022-11-14T07:21:34;6.70;99.90
12700;DHT22;6414;49.570;6.060;2022-11-14T07:24:19;6.70;99.90
12700;DHT22;6414;49.570;6.060;2022-11-14T07:27:04;6.70;99.90
12700;DHT22;6414;49.570;6.060;2022-11-14T07:29:51;6.50;99.90
12700;DHT22;6414;49.570;6.060;2022-11-14T07:32:36;6.30;99.90
12700;DHT22;6414;49.570;6.060;2022-11-14T07:35:22;6.40;99.90
12700;DHT22;6414;49.570;6.060;2022-11-14T07:38:07;6.40;99.90
12700;DHT22;6414;49.570;6.060;2022-11-14T07:40:56;6.50;99.90
12700;DHT22;6414;49.570;6.060;2022-11-14T07:43:41;6.60;99.90
12700;DHT22;6414;49.570;6.060;2022-11-14T07:46:26;6.60;99.90
12700;DHT22;6414;49.570;6.060;2022-11-14T07:49:12;6.70;99.90
12700;DHT22;6414;49.570;6.060;2022-11-14T07:51:57;6.70;99.90
12700;DHT22;6414;49.570;6.060;2022-11-14T07:54:43;6.60;99.90
12700;DHT22;6414;49.570;6.060;2022-11-14T07:57:28;6.70;99.90
12700;DHT22;6414;49.570;6.060;2022-11-14T08:00:14;6.80;99.90
12700;DHT22;6414;49.570;6.060;2022-11-14T08:03:00;6.70;99.90
12700;DHT22;6414;49.570;6.060;2022-11-14T08:05:46;6.50;99.90
12700;DHT22;6414;49.570;6.060;2022-11-14T08:08:31;6.80;99.90
12700;DHT22;6414;49.570;6.060;2022-11-14T08:11:17;6.90;99.90
12700;DHT22;6414;49.570;6.060;2022-11-14T08:14:02;7.00;99.90
12700;DHT22;6414;49.570;6.060;2022-11-14T08:16:48;6.90;99.90
12700;DHT22;6414;49.570;6.060;2022-11-14T08:19:33;6.70;99.90
12700;DHT22;6414;49.570;6.060;2022-11-14T08:22:18;6.90;99.90
12700;DHT22;6414;49.570;6.060;2022-11-14T08:25:03;7.00;99.90
12700;DHT22;6414;49.570;6.060;2022-11-14T08:27:49;6.90;99.90
12700;DHT22;6414;49.570;6.060;2022-11-14T08:30:34;6.90;99.90
12700;DHT22;6414;49.570;6.060;2022-11-14T08:33:19;7.10;99.90
12700;DHT22;6414;49.570;6.060;2022-11-14T08:36:06;7.10;99.90
12700;DHT22;6414;49.570;6.060;2022-11-14T08:38:50;7.20;99.90
12700;DHT22;6414;49.570;6.060;2022-11-14T08:41:36;7.20;99.90
12700;DHT22;6414;49.570;6.060;2022-11-14T08:44:21;7.30;99.90
12700;DHT22;6414;49.570;6.060;2022-11-14T08:47:07;7.20;99.90
12700;DHT22;6414;49.570;6.060;2022-11-14T08:49:52;7.30;99.90
12700;DHT22;6414;49.570;6.060;2022-11-14T08:52:38;7.40;99.90
12700;DHT22;6414;49.570;6.060;2022-11-14T08:55:24;7.40;99.90
12700;DHT22;6414;49.570;6.060;2022-11-14T08:58:09;7.20;99.90
12700;DHT22;6414;49.570;6.060;2022-11-14T09:00:59;7.30;99.90
12700;DHT22;6414;49.570;6.060;2022-11-14T09:03:43;7.10;99.90
12700;DHT22;6414;49.570;6.060;2022-11-14T09:06:29;7.40;99.90
12700;DHT22;6414;49.570;6.060;2022-11-14T09:09:15;7.20;99.90
12700;DHT22;6414;49.570;6.060;2022-11-14T09:12:00;7.20;99.90
12700;DHT22;6414;49.570;6.060;2022-11-14T09:14:45;7.40;99.90
12700;DHT22;6414;49.570;6.060;2022-11-14T09:17:31;7.30;99.90
12700;DHT22;6414;49.570;6.060;2022-11-14T09:20:16;7.20;99.90
12700;DHT22;6414;49.570;6.060;2022-11-14T09:23:02;7.10;99.90
12700;DHT22;6414;49.570;6.060;2022-11-14T09:25:47;6.90;99.90
12700;DHT22;6414;49.570;6.060;2022-11-14T09:28:32;7.10;99.90
12700;DHT22;6414;49.570;6.060;2022-11-14T09:31:18;6.90;99.90
12700;DHT22;6414;49.570;6.060;2022-11-14T09:34:03;6.90;99.90
12700;DHT22;6414;49.570;6.060;2022-11-14T09:36:49;7.10;99.90
12700;DHT22;6414;49.570;6.060;2022-11-14T09:39:34;7.10;99.90
12700;DHT22;6414;49.570;6.060;2022-11-14T09:45:40;7.10;99.90
12700;DHT22;6414;49.570;6.060;2022-11-14T09:48:25;6.90;99.90
12700;DHT22;6414;49.570;6.060;2022-11-14T09:51:18;7.00;99.90
12700;DHT22;6414;49.570;6.060;2022-11-14T09:54:22;7.00;99.90
12700;DHT22;6414;49.570;6.060;2022-11-14T09:57:15;6.90;99.90
12700;DHT22;6414;49.570;6.060;2022-11-14T09:59:52;7.20;99.90
12700;DHT22;6414;49.570;6.060;2022-11-14T10:02:50;7.00;99.90
12700;DHT22;6414;49.570;6.060;2022-11-14T10:05:38;6.90;99.90
12700;DHT22;6414;49.570;6.060;2022-11-14T10:08:37;6.80;99.90
12700;DHT22;6414;49.570;6.060;2022-11-14T10:14:31;7.00;99.90
12700;DHT22;6414;49.570;6.060;2022-11-14T10:17:16;7.20;99.90
12700;DHT22;6414;49.570;6.060;2022-11-14T10:21:05;7.00;99.90
12700;DHT22;6414;49.570;6.060;2022-11-14T10:23:06;7.00;99.90
12700;DHT22;6414;49.570;6.060;2022-11-14T10:26:00;7.00;99.90
12700;DHT22;6414;49.570;6.060;2022-11-14T10:34:42;7.00;99.90
12700;DHT22;6414;49.570;6.060;2022-11-14T10:37:35;7.10;99.90
12700;DHT22;6414;49.570;6.060;2022-11-14T10:40:21;7.20;99.90
12700;DHT22;6414;49.570;6.060;2022-11-14T10:43:09;7.30;99.90
12700;DHT22;6414;49.570;6.060;2022-11-14T10:46:07;7.30;99.90
12700;DHT22;6414;49.570;6.060;2022-11-14T10:48:51;7.40;99.90
12700;DHT22;6414;49.570;6.060;2022-11-14T10:51:38;7.30;99.90
12700;DHT22;6414;49.570;6.060;2022-11-14T10:57:23;7.30;99.90
12700;DHT22;6414;49.570;6.060;2022-11-14T11:00:12;7.10;99.90
12700;DHT22;6414;49.570;6.060;2022-11-14T11:02:56;7.20;99.90
12700;DHT22;6414;49.570;6.060;2022-11-14T11:05:49;7.20;99.90
12700;DHT22;6414;49.570;6.060;2022-11-14T11:08:39;7.40;99.90
12700;DHT22;6414;49.570;6.060;2022-11-14T11:11:38;7.40;99.90
12700;DHT22;6414;49.570;6.060;2022-11-14T11:14:24;7.40;99.90
12700;DHT22;6414;49.570;6.060;2022-11-14T11:17:15;7.30;99.90
12700;DHT22;6414;49.570;6.060;2022-11-14T11:26:01;7.60;99.90
12700;DHT22;6414;49.570;6.060;2022-11-14T11:28:59;7.50;99.90
12700;DHT22;6414;49.570;6.060;2022-11-14T11:31:56;7.50;99.90
12700;DHT22;6414;49.570;6.060;2022-11-14T11:34:38;7.50;99.90
12700;DHT22;6414;49.570;6.060;2022-11-14T11:37:36;7.40;99.90
12700;DHT22;6414;49.570;6.060;2022-11-14T11:40:24;7.50;99.90
12700;DHT22;6414;49.570;6.060;2022-11-14T11:46:25;7.40;99.90
12700;DHT22;6414;49.570;6.060;2022-11-14T11:49:12;7.40;99.90
12700;DHT22;6414;49.570;6.060;2022-11-14T11:51:53;7.40;99.90
12700;DHT22;6414;49.570;6.060;2022-11-14T11:55:02;7.50;99.90
12700;DHT22;6414;49.570;6.060;2022-11-14T11:57:27;7.40;99.90
12700;DHT22;6414;49.570;6.060;2022-11-14T12:00:21;7.40;99.90
12700;DHT22;6414;49.570;6.060;2022-11-14T12:03:12;7.40;99.90
12700;DHT22;6414;49.570;6.060;2022-11-14T12:06:13;7.30;99.90
12700;DHT22;6414;49.570;6.060;2022-11-14T12:09:00;7.40;99.90
12700;DHT22;6414;49.570;6.060;2022-11-14T12:11:45;7.30;99.90
12700;DHT22;6414;49.570;6.060;2022-11-14T12:30:10;7.20;99.90
12700;DHT22;6414;49.570;6.060;2022-11-14T12:32:55;7.20;99.90
12700;DHT22;6414;49.570;6.060;2022-11-14T12:35:46;7.10;99.90
12700;DHT22;6414;49.570;6.060;2022-11-14T12:38:25;7.00;99.90
12700;DHT22;6414;49.570;6.060;2022-11-14T12:41:11;6.90;99.90
12700;DHT22;6414;49.570;6.060;2022-11-14T12:47:15;7.00;99.90
12700;DHT22;6414;49.570;6.060;2022-11-14T12:49:59;7.10;99.90
12700;DHT22;6414;49.570;6.060;2022-11-14T12:52:44;6.90;99.90
12700;DHT22;6414;49.570;6.060;2022-11-14T13:07:45;6.90;99.90
12700;DHT22;6414;49.570;6.060;2022-11-14T13:10:30;7.00;99.90
12700;DHT22;6414;49.570;6.060;2022-11-14T13:13:16;6.90;99.90
12700;DHT22;6414;49.570;6.060;2022-11-14T13:16:23;7.00;99.90
12700;DHT22;6414;49.570;6.060;2022-11-14T13:19:26;6.90;99.90
12700;DHT22;6414;49.570;6.060;2022-11-14T13:22:39;6.90;99.90
12700;DHT22;6414;49.570;6.060;2022-11-14T13:25:24;6.90;99.90
12700;DHT22;6414;49.570;6.060;2022-11-14T13:31:22;6.90;99.90
12700;DHT22;6414;49.570;6.060;2022-11-14T13:49:46;6.90;99.90
12700;DHT22;6414;49.570;6.060;2022-11-14T13:52:26;6.80;99.90
12700;DHT22;6414;49.570;6.060;2022-11-14T14:07:20;6.90;99.90
12700;DHT22;6414;49.570;6.060;2022-11-14T14:13:15;6.90;99.90
12700;DHT22;6414;49.570;6.060;2022-11-14T14:16:04;6.80;99.90
12700;DHT22;6414;49.570;6.060;2022-11-14T14:19:14;6.80;99.90
12700;DHT22;6414;49.570;6.060;2022-11-14T14:25:03;6.80;99.90
12700;DHT22;6414;49.570;6.060;2022-11-14T14:33:46;6.90;99.90
12700;DHT22;6414;49.570;6.060;2022-11-14T14:36:31;6.80;99.90
12700;DHT22;6414;49.570;6.060;2022-11-14T14:39:17;6.80;99.90
12700;DHT22;6414;49.570;6.060;2022-11-14T14:42:01;6.90;99.90
12700;DHT22;6414;49.570;6.060;2022-11-14T14:44:48;6.80;99.90
12700;DHT22;6414;49.570;6.060;2022-11-14T14:47:39;6.90;99.90
12700;DHT22;6414;49.570;6.060;2022-11-14T14:50:26;6.80;99.90
12700;DHT22;6414;49.570;6.060;2022-11-14T14:53:19;6.80;99.90
12700;DHT22;6414;49.570;6.060;2022-11-14T14:56:06;6.80;99.90
12700;DHT22;6414;49.570;6.060;2022-11-14T14:58:48;6.80;99.90
12700;DHT22;6414;49.570;6.060;2022-11-14T15:01:34;6.80;99.90
12700;DHT22;6414;49.570;6.060;2022-11-14T15:04:20;6.70;99.90
12700;DHT22;6414;49.570;6.060;2022-11-14T15:07:14;6.80;99.90
12700;DHT22;6414;49.570;6.060;2022-11-14T15:09:54;6.80;99.90
12700;DHT22;6414;49.570;6.060;2022-11-14T15:12:38;6.90;99.90
12700;DHT22;6414;49.570;6.060;2022-11-14T15:15:23;6.80;99.90
12700;DHT22;6414;49.570;6.060;2022-11-14T15:18:25;6.80;99.90
12700;DHT22;6414;49.570;6.060;2022-11-14T15:21:30;6.90;99.90
12700;DHT22;6414;49.570;6.060;2022-11-14T15:24:14;6.80;99.90
12700;DHT22;6414;49.570;6.060;2022-11-14T15:26:58;6.70;99.90
12700;DHT22;6414;49.570;6.060;2022-11-14T15:29:52;6.70;99.90
12700;DHT22;6414;49.570;6.060;2022-11-14T15:32:37;6.70;99.90
12700;DHT22;6414;49.570;6.060;2022-11-14T15:35:27;6.70;99.90
12700;DHT22;6414;49.570;6.060;2022-11-14T15:41:19;6.70;99.90
12700;DHT22;6414;49.570;6.060;2022-11-14T15:44:04;6.80;99.90
12700;DHT22;6414;49.570;6.060;2022-11-14T15:46:49;6.80;99.90
12700;DHT22;6414;49.570;6.060;2022-11-14T15:49:35;6.80;99.90
12700;DHT22;6414;49.570;6.060;2022-11-14T15:52:22;6.70;99.90
12700;DHT22;6414;49.570;6.060;2022-11-14T15:55:21;6.70;99.90
12700;DHT22;6414;49.570;6.060;2022-11-14T15:58:09;6.80;99.90
12700;DHT22;6414;49.570;6.060;2022-11-14T16:00:54;6.70;99.90
12700;DHT22;6414;49.570;6.060;2022-11-14T16:03:39;6.80;99.90
12700;DHT22;6414;49.570;6.060;2022-11-14T16:06:24;6.70;99.90
12700;DHT22;6414;49.570;6.060;2022-11-14T16:09:14;6.70;99.90
12700;DHT22;6414;49.570;6.060;2022-11-14T16:11:59;6.80;99.90
12700;DHT22;6414;49.570;6.060;2022-11-14T16:14:44;6.80;99.90
12700;DHT22;6414;49.570;6.060;2022-11-14T16:17:33;6.80;99.90
12700;DHT22;6414;49.570;6.060;2022-11-14T16:20:19;6.80;99.90
12700;DHT22;6414;49.570;6.060;2022-11-14T16:23:04;6.80;99.90
12700;DHT22;6414;49.570;6.060;2022-11-14T16:25:49;6.80;99.90
12700;DHT22;6414;49.570;6.060;2022-11-14T16:28:35;6.70;99.90
12700;DHT22;6414;49.570;6.060;2022-11-14T16:31:23;6.60;99.90
12700;DHT22;6414;49.570;6.060;2022-11-14T16:34:09;6.90;99.90
12700;DHT22;6414;49.570;6.060;2022-11-14T16:36:56;6.90;99.90
12700;DHT22;6414;49.570;6.060;2022-11-14T16:39:40;6.90;99.90
12700;DHT22;6414;49.570;6.060;2022-11-14T16:42:26;7.00;99.90
12700;DHT22;6414;49.570;6.060;2022-11-14T16:45:14;7.00;99.90
12700;DHT22;6414;49.570;6.060;2022-11-14T16:47:59;7.00;99.90
12700;DHT22;6414;49.570;6.060;2022-11-14T16:50:45;7.00;99.90
12700;DHT22;6414;49.570;6.060;2022-11-14T16:53:30;6.90;99.90
12700;DHT22;6414;49.570;6.060;2022-11-14T16:56:15;7.00;99.90
12700;DHT22;6414;49.570;6.060;2022-11-14T16:59:01;7.00;99.90
12700;DHT22;6414;49.570;6.060;2022-11-14T17:01:46;7.00;99.90
12700;DHT22;6414;49.570;6.060;2022-11-14T17:04:32;7.00;99.90
12700;DHT22;6414;49.570;6.060;2022-11-14T17:07:18;6.90;99.90
12700;DHT22;6414;49.570;6.060;2022-11-14T17:10:04;7.00;99.90
12700;DHT22;6414;49.570;6.060;2022-11-14T17:12:48;7.00;99.90
12700;DHT22;6414;49.570;6.060;2022-11-14T17:15:34;6.80;99.90
12700;DHT22;6414;49.570;6.060;2022-11-14T17:18:19;6.80;99.90
12700;DHT22;6414;49.570;6.060;2022-11-14T17:21:08;6.80;99.90
12700;DHT22;6414;49.570;6.060;2022-11-14T17:23:57;6.70;99.90
12700;DHT22;6414;49.570;6.060;2022-11-14T17:26:39;6.80;99.90
12700;DHT22;6414;49.570;6.060;2022-11-14T17:29:24;6.80;99.90
12700;DHT22;6414;49.570;6.060;2022-11-14T17:32:09;6.80;99.90
12700;DHT22;6414;49.570;6.060;2022-11-14T17:34:55;6.70;99.90
12700;DHT22;6414;49.570;6.060;2022-11-14T17:37:40;6.70;99.90
12700;DHT22;6414;49.570;6.060;2022-11-14T17:40:26;6.70;99.90
12700;DHT22;6414;49.570;6.060;2022-11-14T17:43:12;6.80;99.90
12700;DHT22;6414;49.570;6.060;2022-11-14T17:45:56;6.80;99.90
12700;DHT22;6414;49.570;6.060;2022-11-14T17:48:44;6.70;99.90
12700;DHT22;6414;49.570;6.060;2022-11-14T17:51:27;6.70;99.90
12700;DHT22;6414;49.570;6.060;2022-11-14T17:54:12;6.70;99.90
12700;DHT22;6414;49.570;6.060;2022-11-14T17:56:57;6.60;99.90
12700;DHT22;6414;49.570;6.060;2022-11-14T17:59:43;6.70;99.90
12700;DHT22;6414;49.570;6.060;2022-11-14T18:02:29;6.70;99.90
12700;DHT22;6414;49.570;6.060;2022-11-14T18:05:14;6.80;99.90
12700;DHT22;6414;49.570;6.060;2022-11-14T18:07:59;6.80;99.90
12700;DHT22;6414;49.570;6.060;2022-11-14T18:10:44;6.70;99.90
12700;DHT22;6414;49.570;6.060;2022-11-14T18:13:30;6.90;99.90
12700;DHT22;6414;49.570;6.060;2022-11-14T18:16:16;6.90;99.90
12700;DHT22;6414;49.570;6.060;2022-11-14T18:19:00;6.70;99.90
12700;DHT22;6414;49.570;6.060;2022-11-14T18:21:46;6.60;99.90
12700;DHT22;6414;49.570;6.060;2022-11-14T18:24:31;6.70;99.90
12700;DHT22;6414;49.570;6.060;2022-11-14T18:27:17;6.70;99.90
12700;DHT22;6414;49.570;6.060;2022-11-14T18:30:02;6.80;99.90
12700;DHT22;6414;49.570;6.060;2022-11-14T18:32:47;6.80;99.90
12700;DHT22;6414;49.570;6.060;2022-11-14T18:35:33;6.80;99.90
12700;DHT22;6414;49.570;6.060;2022-11-14T18:38:19;6.80;99.90
12700;DHT22;6414;49.570;6.060;2022-11-14T18:41:08;6.80;99.90
12700;DHT22;6414;49.570;6.060;2022-11-14T18:43:52;6.90;99.90
12700;DHT22;6414;49.570;6.060;2022-11-14T18:46:34;6.90;99.90
12700;DHT22;6414;49.570;6.060;2022-11-14T18:49:20;7.00;99.90
12700;DHT22;6414;49.570;6.060;2022-11-14T18:52:05;7.00;99.90
12700;DHT22;6414;49.570;6.060;2022-11-14T18:54:50;7.00;99.90
12700;DHT22;6414;49.570;6.060;2022-11-14T18:57:36;7.00;99.90
12700;DHT22;6414;49.570;6.060;2022-11-14T19:00:23;7.10;99.90
12700;DHT22;6414;49.570;6.060;2022-11-14T19:03:09;7.10;99.90
12700;DHT22;6414;49.570;6.060;2022-11-14T19:05:55;7.10;99.90
12700;DHT22;6414;49.570;6.060;2022-11-14T19:08:40;7.20;99.90
12700;DHT22;6414;49.570;6.060;2022-11-14T19:11:25;7.20;99.90
12700;DHT22;6414;49.570;6.060;2022-11-14T19:14:29;7.20;99.90
12700;DHT22;6414;49.570;6.060;2022-11-14T19:17:14;7.40;99.90
12700;DHT22;6414;49.570;6.060;2022-11-14T19:20:00;7.40;99.90
12700;DHT22;6414;49.570;6.060;2022-11-14T19:22:44;7.50;99.90
12700;DHT22;6414;49.570;6.060;2022-11-14T19:25:30;7.50;99.90
12700;DHT22;6414;49.570;6.060;2022-11-14T19:28:15;7.60;99.90
12700;DHT22;6414;49.570;6.060;2022-11-14T19:31:01;7.60;99.90
12700;DHT22;6414;49.570;6.060;2022-11-14T19:33:46;7.70;99.90
12700;DHT22;6414;49.570;6.060;2022-11-14T19:36:32;7.70;99.90
12700;DHT22;6414;49.570;6.060;2022-11-14T19:39:20;7.70;99.90
12700;DHT22;6414;49.570;6.060;2022-11-14T19:42:06;7.70;99.90
12700;DHT22;6414;49.570;6.060;2022-11-14T19:44:52;7.70;99.90
12700;DHT22;6414;49.570;6.060;2022-11-14T19:47:37;7.70;99.90
12700;DHT22;6414;49.570;6.060;2022-11-14T19:50:22;7.70;99.90